Time;durP1;ratioP1;P1;durP2;ratioP2;P2;SDS_P1;SDS_P2;PMS_P1;PMS_P2;Temp;Humidity;BMP_temperature;BMP_pressure;BME280_temperature;BME280_humidity;BME280_pressure;Samples;Min_cycle;Max_cycle;Signal;HPM_P1;HPM_P2
2022/12/30 00:01:34;;;;;;;4.83;2.17;;;9.50;99.90;;;;;;4953811;29;20478;-73
2022/12/30 00:04:00;;;;;;;7.80;2.23;;;9.50;99.90;;;;;;4953782;29;20451;-73
2022/12/30 00:06:29;;;;;;;11.83;2.30;;;9.50;99.90;;;;;;4954895;29;20937;-73
2022/12/30 00:09:00;;;;;;;7.70;2.43;;;9.50;99.90;;;;;;4953879;29;20439;-73
2022/12/30 00:11:31;;;;;;;6.03;2.43;;;9.40;99.90;;;;;;4954887;29;20410;-72
2022/12/30 00:34:17;;;;;;;6.60;2.23;;;9.40;99.90;;;;;;4957006;29;20464;-72
2022/12/30 00:36:49;;;;;;;6.20;2.00;;;9.40;99.90;;;;;;4957169;29;20411;-72
2022/12/30 00:39:17;;;;;;;6.50;2.53;;;9.30;99.90;;;;;;4957051;29;20403;-73
2022/12/30 00:44:28;;;;;;;7.53;1.87;;;9.30;99.90;;;;;;4940852;29;20570;-73
2022/12/30 00:46:55;;;;;;;9.70;2.90;;;9.40;99.90;;;;;;4941081;29;20450;-72
2022/12/30 00:57:41;;;;;;;6.17;2.30;;;9.30;99.90;;;;;;4957258;29;20430;-72
2022/12/30 01:00:10;;;;;;;8.37;2.07;;;9.30;99.90;;;;;;4956672;29;20443;-73
2022/12/30 01:02:36;;;;;;;6.13;2.20;;;9.30;99.90;;;;;;4957687;29;20443;-72
2022/12/30 01:05:08;;;;;;;14.27;2.97;;;9.30;99.90;;;;;;4972316;28;20395;-72
2022/12/30 01:07:38;;;;;;;6.70;2.13;;;9.30;99.90;;;;;;4956617;29;20439;-73
2022/12/30 01:10:07;;;;;;;5.40;2.00;;;9.30;99.90;;;;;;4940650;29;20943;-73
2022/12/30 01:12:33;;;;;;;5.00;2.10;;;9.30;99.90;;;;;;4957332;29;20442;-73
2022/12/30 01:15:06;;;;;;;3.67;1.73;;;9.30;99.90;;;;;;4957434;29;20462;-72
2022/12/30 01:17:33;;;;;;;6.20;2.07;;;9.30;99.90;;;;;;4940492;29;20430;-73
2022/12/30 01:20:03;;;;;;;6.67;2.53;;;9.30;99.90;;;;;;4956282;29;20532;-73
2022/12/30 01:22:32;;;;;;;6.60;2.00;;;9.20;99.90;;;;;;4940313;29;20501;-73
2022/12/30 01:25:00;;;;;;;6.63;2.20;;;9.30;99.90;;;;;;4940935;29;21016;-73
2022/12/30 01:27:27;;;;;;;7.07;2.27;;;9.30;99.90;;;;;;4956140;29;20584;-72
2022/12/30 01:29:56;;;;;;;7.67;1.93;;;9.30;99.90;;;;;;4956097;29;20400;-73
2022/12/30 01:32:22;;;;;;;5.30;2.10;;;9.30;99.90;;;;;;4955883;28;20457;-72
2022/12/30 01:34:52;;;;;;;5.70;2.00;;;9.20;99.90;;;;;;4957139;28;20571;-73
2022/12/30 01:37:20;;;;;;;8.20;2.50;;;9.20;99.90;;;;;;4956045;29;20414;-73
2022/12/30 01:39:46;;;;;;;7.17;1.63;;;9.20;99.90;;;;;;4940167;29;20761;-72
2022/12/30 01:42:38;;;;;;;5.97;1.90;;;9.20;99.90;;;;;;4955956;29;20451;-72
2022/12/30 01:45:28;;;;;;;9.90;2.17;;;9.20;99.90;;;;;;4955946;29;21023;-73
2022/12/30 01:48:02;;;;;;;7.57;2.20;;;9.20;99.90;;;;;;4957001;29;20412;-72
2022/12/30 01:50:37;;;;;;;5.60;1.73;;;9.20;99.90;;;;;;4956949;29;20422;-73
2022/12/30 01:53:42;;;;;;;6.40;2.03;;;9.20;99.90;;;;;;4940043;29;20486;-72
2022/12/30 01:56:16;;;;;;;6.63;1.80;;;9.20;99.90;;;;;;4919785;29;20436;-72
2022/12/30 01:58:48;;;;;;;7.33;2.63;;;9.20;99.90;;;;;;4954118;28;20438;-72
2022/12/30 02:01:14;;;;;;;5.27;2.00;;;9.20;99.90;;;;;;4939675;29;20423;-73
2022/12/30 02:03:48;;;;;;;5.30;1.87;;;9.20;99.90;;;;;;4956505;28;20449;-73
2022/12/30 02:06:27;;;;;;;4.67;1.60;;;9.10;99.90;;;;;;4955656;29;20439;-73
2022/12/30 02:08:55;;;;;;;4.70;2.20;;;9.10;99.90;;;;;;4955246;29;20554;-73
2022/12/30 02:11:24;;;;;;;8.30;2.30;;;9.20;99.90;;;;;;4955497;29;20435;-72
2022/12/30 02:13:50;;;;;;;3.33;1.80;;;9.10;99.90;;;;;;4971354;28;20477;-72
2022/12/30 02:16:30;;;;;;;7.67;2.40;;;9.10;99.90;;;;;;4939679;29;20506;-73
2022/12/30 02:19:37;;;;;;;5.80;2.23;;;9.10;99.90;;;;;;4955282;29;20457;-72
2022/12/30 02:22:34;;;;;;;4.43;1.57;;;9.10;99.90;;;;;;4939766;29;20435;-73
2022/12/30 02:25:14;;;;;;;4.87;1.90;;;9.10;99.90;;;;;;4939391;29;20453;-73
2022/12/30 02:28:17;;;;;;;8.43;2.03;;;9.10;99.90;;;;;;5042141;23;20496;-71
2022/12/30 02:31:08;;;;;;;2.57;1.30;;;9.10;99.90;;;;;;4974260;28;20430;-70
2022/12/30 02:33:58;;;;;;;6.17;2.00;;;9.10;99.90;;;;;;4973695;28;20484;-70
2022/12/30 02:36:37;;;;;;;2.97;1.90;;;9.10;99.90;;;;;;4974323;28;20843;-70
2022/12/30 02:39:13;;;;;;;5.53;2.20;;;9.10;99.90;;;;;;4978181;28;20914;-71
2022/12/30 02:44:44;;;;;;;3.83;1.60;;;9.00;99.90;;;;;;4992944;28;20448;-70
2022/12/30 02:47:51;;;;;;;6.40;1.67;;;9.00;99.90;;;;;;4977255;28;20981;-71
2022/12/30 02:53:28;;;;;;;5.47;1.97;;;9.00;99.90;;;;;;4974801;28;20469;-71
2022/12/30 02:55:55;;;;;;;7.73;2.10;;;9.00;99.90;;;;;;4962014;28;20461;-70
2022/12/30 02:58:26;;;;;;;5.20;2.33;;;9.00;99.90;;;;;;4989623;28;20451;-71
2022/12/30 03:04:34;;;;;;;5.93;2.23;;;9.00;99.90;;;;;;4992930;28;20784;-71
2022/12/30 03:07:22;;;;;;;5.20;1.50;;;9.00;99.90;;;;;;4992892;28;20444;-71
2022/12/30 03:13:17;;;;;;;5.83;2.10;;;9.00;99.90;;;;;;4980140;28;20482;-71
2022/12/30 03:16:12;;;;;;;6.00;1.60;;;9.00;99.90;;;;;;4968497;28;20980;-72
2022/12/30 03:18:38;;;;;;;5.30;2.20;;;9.00;99.90;;;;;;4974360;28;20417;-71
2022/12/30 03:21:09;;;;;;;5.70;2.17;;;8.90;99.90;;;;;;4957363;28;20444;-71
2022/12/30 03:29:19;;;;;;;3.67;1.57;;;9.00;99.90;;;;;;4992574;28;20490;-72
2022/12/30 03:31:48;;;;;;;3.77;1.50;;;8.90;99.90;;;;;;4992653;28;20421;-71
2022/12/30 03:34:16;;;;;;;5.63;2.00;;;8.90;99.90;;;;;;4976241;28;20480;-71
2022/12/30 03:36:48;;;;;;;6.50;2.00;;;8.90;99.90;;;;;;5006058;28;20446;-71
2022/12/30 03:39:36;;;;;;;6.00;1.73;;;8.90;99.90;;;;;;5005783;28;20413;-71
2022/12/30 03:42:04;;;;;;;8.47;2.20;;;8.90;99.90;;;;;;4993438;28;20433;-72
2022/12/30 03:44:32;;;;;;;5.13;1.90;;;8.90;99.90;;;;;;4993327;28;20845;-72
2022/12/30 03:46:58;;;;;;;6.50;2.13;;;8.90;99.90;;;;;;4992774;28;20431;-71
2022/12/30 03:49:27;;;;;;;4.73;1.97;;;8.90;99.90;;;;;;4993427;28;20440;-72
2022/12/30 03:51:55;;;;;;;4.87;1.50;;;8.90;99.90;;;;;;4976324;28;20432;-72
2022/12/30 03:54:24;;;;;;;5.40;2.20;;;8.90;99.90;;;;;;4960441;28;20472;-72
2022/12/30 03:56:52;;;;;;;5.20;1.90;;;8.90;99.90;;;;;;4997166;28;20451;-72
2022/12/30 03:59:18;;;;;;;3.10;1.60;;;8.90;99.90;;;;;;4976954;28;20453;-71
2022/12/30 04:01:47;;;;;;;4.70;1.60;;;8.90;99.90;;;;;;4993091;28;20437;-71
2022/12/30 04:04:13;;;;;;;5.37;1.80;;;8.90;99.90;;;;;;4976801;28;20817;-71
2022/12/30 04:06:41;;;;;;;5.80;2.20;;;8.90;99.90;;;;;;4977038;28;20791;-71
2022/12/30 04:09:07;;;;;;;4.27;1.80;;;8.80;99.90;;;;;;4984446;28;20450;-71
2022/12/30 04:11:35;;;;;;;6.30;1.57;;;8.90;99.90;;;;;;4980105;28;20530;-71
2022/12/30 04:14:01;;;;;;;6.23;1.90;;;8.90;99.90;;;;;;4997348;28;20501;-72
2022/12/30 04:16:27;;;;;;;7.00;2.10;;;8.80;99.90;;;;;;4996106;28;20427;-71
2022/12/30 04:18:56;;;;;;;9.50;2.60;;;8.80;99.90;;;;;;4997552;28;20571;-72
2022/12/30 04:21:22;;;;;;;7.17;1.60;;;8.80;99.90;;;;;;4996184;28;20480;-71
2022/12/30 04:23:48;;;;;;;8.13;2.07;;;8.80;99.90;;;;;;4979682;28;20462;-71
2022/12/30 04:26:14;;;;;;;7.33;2.33;;;8.80;99.90;;;;;;4979843;28;20417;-71
2022/12/30 04:28:42;;;;;;;3.67;1.90;;;8.80;99.90;;;;;;4998920;28;20444;-71
2022/12/30 04:31:10;;;;;;;5.60;1.77;;;8.80;99.90;;;;;;4981591;28;20515;-71
2022/12/30 04:33:41;;;;;;;4.93;1.93;;;8.80;99.90;;;;;;4963686;28;20625;-71
2022/12/30 04:36:10;;;;;;;10.50;2.57;;;8.80;99.90;;;;;;4996818;28;20405;-71
2022/12/30 04:38:36;;;;;;;7.83;1.83;;;8.80;99.90;;;;;;4995759;28;20436;-71
2022/12/30 04:41:02;;;;;;;6.27;1.80;;;8.80;99.90;;;;;;4995591;28;20771;-71
2022/12/30 04:43:28;;;;;;;8.20;2.80;;;8.70;99.90;;;;;;4995769;28;20538;-72
2022/12/30 04:45:57;;;;;;;5.83;1.83;;;8.70;99.90;;;;;;4995666;28;20426;-72
2022/12/30 04:48:23;;;;;;;6.57;1.83;;;8.70;99.90;;;;;;4979498;28;20436;-72
2022/12/30 04:50:53;;;;;;;4.30;1.67;;;8.70;99.90;;;;;;4995689;28;20854;-71
2022/12/30 04:53:22;;;;;;;4.13;1.90;;;8.70;99.90;;;;;;4963446;28;21015;-71
2022/12/30 04:55:52;;;;;;;9.10;1.97;;;8.70;99.90;;;;;;4995614;28;20525;-71
2022/12/30 04:58:21;;;;;;;10.87;4.27;;;8.70;99.90;;;;;;4995202;28;20458;-71
2022/12/30 05:00:49;;;;;;;7.83;2.07;;;8.70;99.90;;;;;;4995206;28;20435;-71
2022/12/30 05:03:16;;;;;;;6.60;2.37;;;8.70;99.90;;;;;;4995393;28;20491;-71
2022/12/30 05:05:44;;;;;;;4.03;1.83;;;8.70;99.90;;;;;;5011434;28;20507;-71
2022/12/30 05:08:10;;;;;;;7.83;1.90;;;8.70;99.90;;;;;;5014997;28;20534;-72
2022/12/30 05:10:38;;;;;;;3.50;1.60;;;8.70;99.90;;;;;;5015954;28;20399;-71
2022/12/30 05:13:09;;;;;;;6.07;2.27;;;8.70;99.90;;;;;;5001137;28;20558;-71
2022/12/30 05:15:35;;;;;;;3.70;1.83;;;8.60;99.90;;;;;;4978932;28;20508;-72
2022/12/30 05:18:06;;;;;;;6.70;2.70;;;8.70;99.90;;;;;;4995965;28;20441;-71
2022/12/30 05:20:32;;;;;;;6.40;1.90;;;8.60;99.90;;;;;;4994774;28;20450;-71
2022/12/30 05:22:58;;;;;;;4.10;1.93;;;8.60;99.90;;;;;;4994754;28;20436;-71
2022/12/30 05:28:09;;;;;;;5.93;2.27;;;8.60;99.90;;;;;;4967171;28;20460;-71
2022/12/30 05:30:35;;;;;;;4.73;1.70;;;8.60;99.90;;;;;;4994675;28;20404;-71
2022/12/30 05:33:06;;;;;;;4.87;1.53;;;8.60;99.90;;;;;;4992819;28;20475;-73
2022/12/30 05:35:34;;;;;;;5.97;1.67;;;8.60;99.90;;;;;;4969770;28;20469;-74
2022/12/30 05:38:00;;;;;;;7.07;1.80;;;8.60;99.90;;;;;;4974398;28;20414;-74
2022/12/30 05:40:26;;;;;;;5.67;2.00;;;8.60;99.90;;;;;;4974117;28;20919;-74
2022/12/30 05:42:57;;;;;;;4.03;2.10;;;8.60;99.90;;;;;;4985049;28;20451;-74
2022/12/30 05:45:27;;;;;;;5.70;1.90;;;8.60;99.90;;;;;;4963444;28;20455;-73
2022/12/30 05:47:53;;;;;;;5.20;1.90;;;8.60;99.90;;;;;;4974024;28;20492;-73
2022/12/30 05:50:21;;;;;;;7.57;2.13;;;8.60;99.90;;;;;;4974051;28;20428;-74
2022/12/30 05:52:47;;;;;;;6.90;2.30;;;8.60;99.90;;;;;;4993083;28;20431;-73
2022/12/30 05:55:16;;;;;;;6.77;2.10;;;8.60;99.90;;;;;;4983998;28;20436;-74
2022/12/30 05:57:45;;;;;;;5.73;1.67;;;8.60;99.90;;;;;;4981402;28;20528;-74
2022/12/30 06:00:11;;;;;;;6.70;2.10;;;8.60;99.90;;;;;;4992843;28;20474;-73
2022/12/30 06:02:40;;;;;;;6.33;2.30;;;8.50;99.90;;;;;;4992299;28;20887;-73
2022/12/30 06:05:08;;;;;;;7.43;2.70;;;8.50;99.90;;;;;;4974693;28;20429;-74
2022/12/30 06:07:39;;;;;;;4.17;1.80;;;8.50;99.90;;;;;;4975694;28;20424;-73
2022/12/30 06:10:06;;;;;;;4.57;2.13;;;8.50;99.90;;;;;;4992733;28;20439;-74
2022/12/30 06:12:32;;;;;;;4.27;2.20;;;8.50;99.90;;;;;;4959544;28;20455;-75
2022/12/30 06:15:00;;;;;;;3.83;1.73;;;8.50;99.90;;;;;;4980327;28;20452;-75
2022/12/30 06:17:26;;;;;;;6.93;2.20;;;8.50;99.90;;;;;;5003736;28;20439;-76
2022/12/30 06:20:01;;;;;;;3.83;2.33;;;8.50;99.90;;;;;;4973522;28;20792;-77
2022/12/30 06:22:27;;;;;;;5.20;2.00;;;8.50;99.90;;;;;;4974266;28;20485;-76
2022/12/30 06:24:56;;;;;;;4.47;2.60;;;8.50;99.90;;;;;;4989106;28;20436;-77
2022/12/30 06:27:22;;;;;;;6.53;2.50;;;8.50;99.90;;;;;;4988476;28;20477;-76
2022/12/30 06:29:48;;;;;;;6.50;2.30;;;8.50;99.90;;;;;;4976590;28;20738;-75
2022/12/30 06:32:14;;;;;;;7.67;2.00;;;8.40;99.90;;;;;;4992749;28;20426;-73
2022/12/30 06:34:40;;;;;;;8.93;1.90;;;8.50;99.90;;;;;;4992628;28;20786;-75
2022/12/30 06:37:06;;;;;;;6.60;2.13;;;8.40;99.90;;;;;;4971701;28;20430;-75
2022/12/30 06:39:32;;;;;;;6.77;2.30;;;8.40;99.90;;;;;;4993643;28;20824;-76
2022/12/30 06:42:01;;;;;;;4.47;2.00;;;8.40;99.90;;;;;;4988050;28;20442;-75
2022/12/30 06:44:32;;;;;;;5.33;1.90;;;8.40;99.90;;;;;;4993480;28;20459;-75
2022/12/30 06:47:00;;;;;;;4.50;1.97;;;8.40;99.90;;;;;;4980664;28;20450;-75
2022/12/30 06:49:27;;;;;;;5.20;2.07;;;8.40;99.90;;;;;;4977475;28;20507;-75
2022/12/30 06:51:53;;;;;;;7.13;2.40;;;8.40;99.90;;;;;;4975033;28;20504;-75
2022/12/30 06:54:19;;;;;;;4.30;2.13;;;8.40;99.90;;;;;;4957669;28;20552;-74
2022/12/30 06:56:47;;;;;;;9.67;3.33;;;8.40;99.90;;;;;;4982192;28;20551;-75
2022/12/30 06:59:13;;;;;;;4.53;2.30;;;8.40;99.90;;;;;;4990468;28;20481;-76
2022/12/30 07:01:39;;;;;;;5.80;2.30;;;8.40;99.90;;;;;;4995038;28;20433;-75
2022/12/30 07:04:08;;;;;;;3.63;2.00;;;8.40;99.90;;;;;;4984951;28;20457;-75
2022/12/30 07:06:36;;;;;;;6.37;2.77;;;8.40;99.90;;;;;;4985585;28;20514;-75
2022/12/30 07:09:05;;;;;;;7.03;2.07;;;8.40;99.90;;;;;;4976540;28;20979;-72
2022/12/30 07:11:35;;;;;;;6.10;2.43;;;8.40;99.90;;;;;;4993975;28;20824;-72
2022/12/30 07:14:03;;;;;;;4.73;2.30;;;8.30;99.90;;;;;;4994352;28;20549;-72
2022/12/30 07:16:29;;;;;;;7.43;2.00;;;8.30;99.90;;;;;;4985326;28;20479;-72
2022/12/30 07:18:58;;;;;;;4.33;1.97;;;8.30;99.90;;;;;;4972548;28;20479;-72
2022/12/30 07:21:29;;;;;;;4.00;2.30;;;8.30;99.90;;;;;;4973307;28;20461;-72
2022/12/30 07:23:59;;;;;;;10.27;2.13;;;8.30;99.90;;;;;;4957096;28;21057;-72
2022/12/30 07:26:28;;;;;;;5.80;2.10;;;8.30;99.90;;;;;;4973332;28;20920;-72
2022/12/30 07:28:59;;;;;;;4.40;2.03;;;8.30;99.90;;;;;;4980295;28;20436;-72
2022/12/30 07:31:25;;;;;;;5.87;2.00;;;8.30;99.90;;;;;;4991877;28;20408;-73
2022/12/30 07:33:51;;;;;;;4.50;1.90;;;8.30;99.90;;;;;;4977442;28;20471;-72
2022/12/30 07:36:20;;;;;;;4.37;2.00;;;8.30;99.90;;;;;;4988107;28;20462;-74
2022/12/30 07:38:48;;;;;;;9.70;1.87;;;8.30;99.90;;;;;;4984043;28;20905;-73
2022/12/30 07:41:17;;;;;;;7.17;2.93;;;8.30;99.90;;;;;;4962750;28;20435;-73
2022/12/30 07:43:44;;;;;;;7.40;1.93;;;8.30;99.90;;;;;;4956603;28;20495;-73
2022/12/30 07:46:14;;;;;;;6.83;2.33;;;8.30;99.90;;;;;;4979402;28;20429;-74
2022/12/30 07:48:40;;;;;;;4.57;1.90;;;8.30;99.90;;;;;;4981595;28;20437;-73
2022/12/30 07:51:14;;;;;;;4.60;1.50;;;8.30;99.90;;;;;;4988737;28;20490;-73
2022/12/30 07:53:43;;;;;;;4.03;1.77;;;8.30;99.90;;;;;;4990060;28;20999;-76
2022/12/30 07:56:12;;;;;;;6.43;2.43;;;8.30;99.90;;;;;;4980164;28;20423;-73
2022/12/30 07:58:41;;;;;;;3.70;1.80;;;8.30;99.90;;;;;;4989966;28;20443;-74
2022/12/30 08:01:12;;;;;;;5.90;2.33;;;8.30;99.90;;;;;;4992280;28;20464;-74
2022/12/30 08:03:43;;;;;;;4.40;1.77;;;8.30;99.90;;;;;;4974377;28;20521;-75
2022/12/30 08:06:14;;;;;;;5.60;1.70;;;8.30;99.90;;;;;;4966449;28;20436;-73
2022/12/30 08:08:42;;;;;;;8.17;2.60;;;8.20;99.90;;;;;;4987369;28;20432;-76
2022/12/30 08:11:13;;;;;;;5.23;1.60;;;8.20;99.90;;;;;;4978859;28;20452;-74
2022/12/30 08:13:43;;;;;;;4.47;2.10;;;8.20;99.90;;;;;;4975195;28;20462;-73
2022/12/30 08:16:16;;;;;;;6.63;2.10;;;8.20;99.90;;;;;;4990397;28;20464;-73
2022/12/30 08:18:47;;;;;;;5.37;2.13;;;8.20;99.90;;;;;;4941862;28;20456;-74
2022/12/30 08:21:15;;;;;;;8.47;2.00;;;8.20;99.90;;;;;;4978301;28;20417;-75
2022/12/30 08:23:44;;;;;;;9.63;2.33;;;8.20;99.90;;;;;;4972249;28;20448;-69
2022/12/30 08:26:12;;;;;;;5.17;2.57;;;8.20;99.90;;;;;;4992589;28;20458;-73
2022/12/30 08:28:39;;;;;;;5.47;1.80;;;8.20;99.90;;;;;;4971293;28;20455;-76
2022/12/30 08:31:12;;;;;;;5.20;2.17;;;8.20;99.90;;;;;;4955825;28;20528;-70
2022/12/30 08:33:40;;;;;;;6.93;1.93;;;8.20;99.90;;;;;;4954077;28;20531;-75
2022/12/30 08:36:09;;;;;;;5.53;1.60;;;8.20;99.90;;;;;;4971596;28;20413;-75
2022/12/30 08:38:46;;;;;;;5.33;2.00;;;8.20;99.90;;;;;;4986839;28;20456;-76
2022/12/30 08:41:22;;;;;;;4.57;2.13;;;8.20;99.90;;;;;;4941089;28;21031;-77
2022/12/30 08:43:49;;;;;;;4.97;2.17;;;8.20;99.90;;;;;;4975996;28;20437;-76
2022/12/30 08:46:18;;;;;;;3.43;2.00;;;8.20;99.90;;;;;;4970771;28;20430;-77
2022/12/30 08:48:45;;;;;;;6.43;2.10;;;8.20;99.90;;;;;;4993285;28;20409;-79
2022/12/30 08:51:12;;;;;;;6.50;2.10;;;8.20;99.90;;;;;;4994054;28;20759;-78
2022/12/30 08:53:40;;;;;;;3.83;1.73;;;8.20;99.90;;;;;;4975155;28;20483;-78
2022/12/30 08:56:12;;;;;;;5.93;2.10;;;8.20;99.90;;;;;;4966402;28;20977;-78
2022/12/30 08:58:38;;;;;;;6.97;2.17;;;8.20;99.90;;;;;;4980477;28;20446;-77
2022/12/30 09:01:16;;;;;;;6.80;1.97;;;8.20;99.90;;;;;;4993322;28;20472;-76
2022/12/30 09:03:43;;;;;;;4.60;2.43;;;8.20;99.90;;;;;;4996324;28;20446;-78
2022/12/30 09:06:12;;;;;;;4.33;2.03;;;8.20;99.90;;;;;;4972028;28;20443;-76
2022/12/30 09:08:38;;;;;;;5.50;1.73;;;8.20;99.90;;;;;;4974973;28;20459;-76
2022/12/30 09:11:15;;;;;;;4.20;2.00;;;8.20;99.90;;;;;;4992468;28;20437;-76
2022/12/30 09:13:41;;;;;;;4.30;1.90;;;8.20;99.90;;;;;;4975093;28;20501;-76
2022/12/30 09:16:11;;;;;;;3.43;1.57;;;8.20;99.90;;;;;;4975099;28;20472;-76
2022/12/30 09:18:39;;;;;;;2.90;1.80;;;8.20;99.90;;;;;;4972182;28;20421;-76
2022/12/30 09:21:06;;;;;;;2.63;1.43;;;8.20;99.90;;;;;;4975950;28;21004;-76
2022/12/30 09:23:33;;;;;;;6.90;2.20;;;8.20;99.90;;;;;;4976040;28;20442;-76
2022/12/30 09:25:59;;;;;;;4.80;1.93;;;8.20;99.90;;;;;;4977301;28;20466;-74
2022/12/30 09:28:25;;;;;;;4.63;1.70;;;8.20;99.90;;;;;;4942109;28;1105186;-74
2022/12/30 09:30:52;;;;;;;7.37;1.70;;;8.20;99.90;;;;;;4991730;28;20880;-74
2022/12/30 09:33:20;;;;;;;3.20;1.80;;;8.20;99.90;;;;;;4957803;28;20884;-74
2022/12/30 09:35:50;;;;;;;7.17;2.20;;;8.20;99.90;;;;;;4986183;28;20424;-74
2022/12/30 09:38:16;;;;;;;6.50;1.70;;;8.20;99.90;;;;;;4976778;28;20840;-74
2022/12/30 09:40:44;;;;;;;4.30;1.87;;;8.20;99.90;;;;;;4992281;28;20514;-74
2022/12/30 09:43:40;;;;;;;2.77;1.63;;;8.20;99.90;;;;;;4994257;28;20999;-72
2022/12/30 09:46:32;;;;;;;4.80;1.67;;;8.20;99.90;;;;;;4956024;28;20468;-74
2022/12/30 09:49:04;;;;;;;4.50;1.93;;;8.20;99.90;;;;;;4966654;28;21249;-74
2022/12/30 09:51:47;;;;;;;3.03;2.00;;;8.20;99.90;;;;;;4976112;28;20896;-74
2022/12/30 09:54:16;;;;;;;6.40;2.00;;;8.20;99.90;;;;;;4956683;28;20508;-75
2022/12/30 09:56:50;;;;;;;3.83;1.50;;;8.20;99.90;;;;;;4958223;28;20519;-75
2022/12/30 09:59:36;;;;;;;5.13;1.80;;;8.20;99.90;;;;;;5000087;28;20494;-74
2022/12/30 10:02:43;;;;;;;3.13;1.63;;;8.20;99.90;;;;;;5000029;28;20968;-74
2022/12/30 10:05:13;;;;;;;7.73;1.90;;;8.30;99.90;;;;;;4989413;28;20522;-72
2022/12/30 10:07:59;;;;;;;2.80;1.63;;;8.20;99.90;;;;;;4995166;28;20783;-72
2022/12/30 10:10:44;;;;;;;4.47;2.20;;;8.30;99.90;;;;;;4994256;28;20426;-72
2022/12/30 10:13:48;;;;;;;4.33;2.40;;;8.30;99.90;;;;;;4994070;28;20483;-72
2022/12/30 10:16:41;;;;;;;3.73;1.80;;;8.30;99.90;;;;;;4919273;29;20478;-72
2022/12/30 10:19:41;;;;;;;5.10;1.80;;;8.30;99.90;;;;;;4993726;28;20462;-72
2022/12/30 10:22:22;;;;;;;3.13;1.40;;;8.30;99.90;;;;;;4963221;28;20455;-72
2022/12/30 10:25:34;;;;;;;8.07;1.60;;;8.30;99.90;;;;;;4994033;28;20423;-72
2022/12/30 10:28:02;;;;;;;3.00;1.57;;;8.30;99.90;;;;;;4971801;28;20450;-72
2022/12/30 10:30:38;;;;;;;5.13;1.77;;;8.30;99.90;;;;;;4991187;28;20437;-72
2022/12/30 10:33:15;;;;;;;3.77;1.60;;;8.30;99.90;;;;;;4989689;28;20526;-72
2022/12/30 10:35:45;;;;;;;4.80;2.10;;;8.30;99.90;;;;;;4958281;28;20555;-72
2022/12/30 10:38:30;;;;;;;4.80;1.90;;;8.30;99.90;;;;;;4987883;28;20420;-72
2022/12/30 10:41:17;;;;;;;6.10;1.73;;;8.40;99.90;;;;;;4994490;28;20499;-72
2022/12/30 10:44:02;;;;;;;4.70;1.60;;;8.40;99.90;;;;;;4974998;28;20864;-72
2022/12/30 10:46:37;;;;;;;3.33;1.73;;;8.40;99.90;;;;;;4978894;28;20416;-71
2022/12/30 10:49:24;;;;;;;3.20;1.50;;;8.40;99.90;;;;;;4987550;28;20528;-72
2022/12/30 10:51:51;;;;;;;5.90;1.33;;;8.40;99.90;;;;;;4994418;28;20962;-73
2022/12/30 10:54:19;;;;;;;2.70;1.13;;;8.40;99.90;;;;;;4992174;28;20459;-72
2022/12/30 10:56:49;;;;;;;5.53;2.60;;;8.40;99.90;;;;;;4972780;28;20436;-71
2022/12/30 10:59:23;;;;;;;3.80;1.60;;;8.40;99.90;;;;;;4979917;28;20454;-69
2022/12/30 11:02:22;;;;;;;4.03;1.37;;;8.40;99.90;;;;;;4992030;28;20829;-70
2022/12/30 11:04:49;;;;;;;3.80;1.23;;;8.50;99.90;;;;;;4945679;28;20459;-69
2022/12/30 11:07:26;;;;;;;3.47;1.77;;;8.50;99.90;;;;;;4977674;28;20936;-69
2022/12/30 11:09:54;;;;;;;4.60;1.67;;;8.50;99.90;;;;;;4983474;28;20437;-69
2022/12/30 11:15:24;;;;;;;7.73;1.47;;;8.50;99.90;;;;;;4999198;28;20977;-69
2022/12/30 11:17:52;;;;;;;3.77;2.80;;;8.50;99.90;;;;;;4966610;28;20577;-69
2022/12/30 11:20:21;;;;;;;3.73;1.67;;;8.40;99.90;;;;;;4974808;28;20437;-68
2022/12/30 11:22:54;;;;;;;2.97;1.90;;;8.50;99.90;;;;;;4985710;28;20454;-68
2022/12/30 11:25:27;;;;;;;2.93;1.20;;;8.50;99.90;;;;;;4969275;28;20526;-68
2022/12/30 11:27:59;;;;;;;2.60;1.27;;;8.50;99.90;;;;;;4975481;28;20811;-70
2022/12/30 11:30:31;;;;;;;4.20;1.93;;;8.50;99.90;;;;;;4985465;28;20432;-73
2022/12/30 11:33:06;;;;;;;3.57;1.40;;;8.50;99.90;;;;;;4963358;28;20527;-73
2022/12/30 11:35:44;;;;;;;4.30;1.50;;;8.50;99.90;;;;;;4983736;28;20463;-73
2022/12/30 11:38:33;;;;;;;4.40;1.47;;;8.50;99.90;;;;;;4983989;28;20467;-73
2022/12/30 11:41:17;;;;;;;6.20;1.60;;;8.50;99.90;;;;;;4981766;28;20464;-73
2022/12/30 11:43:43;;;;;;;3.03;1.40;;;8.50;99.90;;;;;;4969187;28;20476;-73
2022/12/30 11:46:20;;;;;;;7.10;1.70;;;8.50;99.90;;;;;;4973621;28;20957;-73
2022/12/30 11:48:54;;;;;;;3.53;1.00;;;8.50;99.90;;;;;;4972183;28;20842;-73
2022/12/30 11:51:45;;;;;;;3.60;1.50;;;8.50;99.90;;;;;;4976512;28;20436;-73
2022/12/30 11:54:13;;;;;;;5.37;1.77;;;8.50;99.90;;;;;;4971419;28;20484;-73
2022/12/30 11:56:58;;;;;;;3.77;1.97;;;8.50;99.90;;;;;;4957173;28;20428;-73
2022/12/30 11:59:37;;;;;;;5.40;2.10;;;8.60;99.90;;;;;;4986382;28;20439;-73
2022/12/30 12:02:32;;;;;;;3.93;1.73;;;8.50;99.90;;;;;;4990217;28;20443;-69
2022/12/30 12:04:58;;;;;;;2.40;1.27;;;8.50;99.90;;;;;;4987945;28;20440;-73
2022/12/30 12:07:49;;;;;;;5.23;1.87;;;8.60;99.90;;;;;;4977181;28;20865;-72
2022/12/30 12:10:24;;;;;;;5.20;1.60;;;8.60;99.90;;;;;;4983865;28;20519;-73
2022/12/30 12:12:55;;;;;;;3.53;1.73;;;8.60;99.90;;;;;;4975365;28;20467;-73
2022/12/30 12:15:27;;;;;;;2.70;1.40;;;8.60;99.90;;;;;;4974957;28;20471;-73
2022/12/30 12:18:25;;;;;;;4.23;1.73;;;8.60;99.90;;;;;;4994403;28;20506;-73
2022/12/30 12:20:56;;;;;;;6.47;1.90;;;8.60;99.90;;;;;;4978345;28;20542;-73
2022/12/30 12:24:03;;;;;;;3.07;1.40;;;8.60;99.90;;;;;;4975882;28;20441;-73
2022/12/30 12:26:35;;;;;;;7.23;2.23;;;8.60;99.90;;;;;;4991476;28;20471;-73
2022/12/30 12:29:01;;;;;;;2.70;1.60;;;8.60;99.90;;;;;;4992189;28;20817;-73
2022/12/30 12:31:39;;;;;;;2.70;1.60;;;8.60;99.90;;;;;;4990200;28;20438;-73
2022/12/30 12:34:37;;;;;;;4.83;1.87;;;8.60;99.90;;;;;;4991294;28;20554;-73
2022/12/30 12:37:04;;;;;;;3.30;1.87;;;8.60;99.90;;;;;;4969342;28;20449;-74
2022/12/30 12:40:04;;;;;;;6.53;2.10;;;8.60;99.90;;;;;;4985193;28;20446;-77
2022/12/30 12:42:58;;;;;;;5.47;1.80;;;8.60;99.90;;;;;;4994447;28;20932;-76
2022/12/30 12:45:47;;;;;;;4.03;1.53;;;8.60;99.90;;;;;;4990808;28;20424;-76
2022/12/30 12:48:24;;;;;;;2.97;1.90;;;8.60;99.90;;;;;;4961008;28;20456;-74
2022/12/30 12:51:01;;;;;;;4.33;1.83;;;8.60;99.90;;;;;;4980994;28;20430;-74
2022/12/30 12:53:33;;;;;;;5.60;1.83;;;8.60;99.90;;;;;;4957716;28;20479;-73
2022/12/30 12:56:31;;;;;;;9.97;1.93;;;8.60;99.90;;;;;;4988835;28;20432;-74
2022/12/30 12:59:19;;;;;;;8.60;2.27;;;8.60;99.90;;;;;;4968395;28;20534;-75
2022/12/30 13:02:04;;;;;;;7.53;2.80;;;8.60;99.90;;;;;;4945131;28;20445;-74
2022/12/30 13:05:09;;;;;;;3.30;1.60;;;8.60;99.90;;;;;;4974116;28;20454;-74
2022/12/30 13:07:37;;;;;;;2.70;1.87;;;8.60;99.90;;;;;;4909180;29;20444;-74
2022/12/30 13:10:21;;;;;;;3.50;2.13;;;8.60;99.90;;;;;;4976555;28;20511;-74
2022/12/30 13:13:09;;;;;;;3.43;1.90;;;8.70;99.90;;;;;;4958124;28;20507;-74
2022/12/30 13:15:46;;;;;;;3.43;1.67;;;8.70;99.90;;;;;;4976735;28;20472;-74
2022/12/30 13:18:19;;;;;;;4.00;1.87;;;8.70;99.90;;;;;;4995178;28;20425;-74
2022/12/30 13:20:50;;;;;;;5.20;1.70;;;8.70;99.90;;;;;;4994529;28;20802;-74
2022/12/30 13:23:19;;;;;;;3.83;1.93;;;8.70;99.90;;;;;;4974369;28;20445;-74
2022/12/30 13:26:06;;;;;;;1.83;1.57;;;8.70;99.90;;;;;;4977820;28;20531;-74
2022/12/30 13:28:35;;;;;;;3.07;1.80;;;8.70;99.90;;;;;;4978866;28;20455;-74
2022/12/30 13:31:38;;;;;;;4.20;1.93;;;8.70;99.90;;;;;;4943091;28;20870;-74
2022/12/30 13:34:29;;;;;;;4.60;2.30;;;8.70;99.90;;;;;;4974271;28;20464;-74
2022/12/30 13:36:55;;;;;;;2.80;2.00;;;8.70;99.90;;;;;;4975775;28;20420;-74
2022/12/30 13:39:37;;;;;;;7.83;4.37;;;8.80;99.90;;;;;;4974529;28;20422;-74
2022/12/30 13:42:34;;;;;;;5.40;1.90;;;8.70;99.90;;;;;;4987765;28;20567;-74
2022/12/30 13:45:04;;;;;;;4.30;2.37;;;8.70;99.90;;;;;;4977575;28;20400;-74
2022/12/30 13:47:42;;;;;;;4.93;2.03;;;8.70;99.90;;;;;;4960073;28;20954;-74
2022/12/30 13:50:19;;;;;;;3.93;2.00;;;8.70;99.90;;;;;;4945865;28;20451;-74
2022/12/30 13:52:54;;;;;;;2.60;1.90;;;8.70;99.90;;;;;;4974194;28;20489;-73
2022/12/30 13:55:29;;;;;;;5.57;1.80;;;8.70;99.90;;;;;;4957956;28;20469;-75
2022/12/30 13:58:05;;;;;;;4.13;1.80;;;8.70;99.90;;;;;;4965066;28;20453;-74
2022/12/30 14:00:39;;;;;;;5.50;2.00;;;8.70;99.90;;;;;;4957784;28;21073;-74
2022/12/30 14:03:12;;;;;;;4.27;1.87;;;8.70;99.90;;;;;;4973708;28;20452;-75
2022/12/30 14:05:40;;;;;;;5.90;1.73;;;8.70;99.90;;;;;;4960573;28;20448;-74
2022/12/30 14:08:23;;;;;;;7.50;2.00;;;8.70;99.90;;;;;;4976139;28;20444;-74
2022/12/30 14:10:56;;;;;;;2.87;1.80;;;8.70;99.90;;;;;;4985007;28;20492;-74
2022/12/30 14:13:31;;;;;;;2.77;1.70;;;8.70;99.90;;;;;;4992572;28;20477;-75
2022/12/30 14:15:58;;;;;;;3.10;1.53;;;8.70;99.90;;;;;;4973771;28;20467;-74
2022/12/30 14:18:41;;;;;;;3.43;1.67;;;8.70;99.90;;;;;;4984113;28;20508;-74
2022/12/30 14:21:11;;;;;;;4.43;2.50;;;8.70;99.90;;;;;;4993153;28;20440;-74
2022/12/30 14:23:52;;;;;;;3.33;1.53;;;8.70;99.90;;;;;;4978426;28;20448;-74
2022/12/30 14:26:20;;;;;;;4.90;2.17;;;8.70;99.90;;;;;;4984822;28;20433;-74